Time;durP1;ratioP1;P1;durP2;ratioP2;P2;SDS_P1;SDS_P2;PMS_P1;PMS_P2;Temp;Humidity;BMP_temperature;BMP_pressure;BME280_temperature;BME280_humidity;BME280_pressure;Samples;Min_cycle;Max_cycle;Signal;HPM_P1;HPM_P2
2022/01/24 09:41:05;;;;;;;13.95;3.53;;;;;;;;;;5081168;27;1448301;-95
2022/01/24 09:43:32;;;;;;;4.28;1.63;;;;;;;;;;5115402;28;20172;-96
2022/01/24 09:45:58;;;;;;;9.80;1.92;;;;;;;;;;5114852;28;20653;-96
2022/01/24 09:48:24;;;;;;;26.98;2.80;;;;;;;;;;5104972;28;20292;-95
2022/01/24 09:50:52;;;;;;;72.63;4.13;;;;;;;;;;5094963;28;20193;-93
2022/01/24 09:53:19;;;;;;;16.05;2.45;;;;;;;;;;5093991;28;20532;-96
2022/01/24 09:55:45;;;;;;;7.00;2.67;;;;;;;;;;5094230;28;20173;-96
2022/01/24 09:58:11;;;;;;;45.03;2.92;;;;;;;;;;5093655;28;20681;-96
2022/01/24 10:00:38;;;;;;;16.42;2.05;;;;;;;;;;5094400;28;20162;-96
2022/01/24 10:03:05;;;;;;;20.88;2.13;;;;;;;;;;5096874;28;20187;-96
2022/01/24 10:05:37;;;;;;;7.10;1.70;;;;;;;;;;5097422;28;20198;-96
2022/01/24 10:08:07;;;;;;;16.75;2.65;;;;;;;;;;5098073;28;20198;-96
2022/01/24 10:10:43;;;;;;;28.50;3.17;;;;;;;;;;5105203;28;20190;-96
2022/01/24 10:19:00;;;;;;;15.70;1.92;;;;;;;;;;5115729;28;20251;-96
2022/01/24 10:21:31;;;;;;;30.55;2.25;;;;;;;;;;5107065;28;20163;-96
2022/01/24 10:24:02;;;;;;;44.67;2.63;;;;;;;;;;5134352;28;20193;-96
2022/01/24 10:26:28;;;;;;;57.22;3.08;;;;;;;;;;5118316;28;20170;-96
2022/01/24 10:28:55;;;;;;;3.90;1.40;;;;;;;;;;5112336;28;20274;-96
2022/01/24 10:31:28;;;;;;;36.38;3.10;;;;;;;;;;5113601;28;20155;-96
2022/01/24 10:34:00;;;;;;;17.67;1.70;;;;;;;;;;5101235;28;20223;-95
2022/01/24 10:36:34;;;;;;;6.85;1.60;;;;;;;;;;5101578;28;20211;-96
2022/01/24 10:39:17;;;;;;;77.15;3.50;;;;;;;;;;5099818;28;20347;-95
2022/01/24 10:42:28;;;;;;;32.70;2.75;;;;;;;;;;5097786;28;20166;-94
2022/01/24 10:44:36;;;;;;;7.40;3.05;;;;;;;;;;5105768;28;20186;-96
2022/01/24 10:47:17;;;;;;;8.45;1.95;;;;;;;;;;5093307;28;20642;-96
2022/01/24 10:49:44;;;;;;;4.50;1.50;;;;;;;;;;5097754;28;20666;-96
2022/01/24 10:52:14;;;;;;;4.55;1.60;;;;;;;;;;5089537;28;20171;-96
2022/01/24 10:54:40;;;;;;;15.10;1.85;;;;;;;;;;5087881;28;20163;-96
2022/01/24 10:57:08;;;;;;;16.13;2.05;;;;;;;;;;5087577;28;20258;-96
2022/01/24 10:59:36;;;;;;;13.70;2.35;;;;;;;;;;5089693;28;20199;-96
2022/01/24 11:02:03;;;;;;;11.05;2.10;;;;;;;;;;5089416;28;20178;-96
2022/01/24 11:04:33;;;;;;;9.35;2.53;;;;;;;;;;5087883;28;20168;-96
2022/01/24 11:07:01;;;;;;;20.48;2.63;;;;;;;;;;5089522;28;20171;-96
2022/01/24 11:09:29;;;;;;;4.87;2.17;;;;;;;;;;5089316;28;20221;-96
2022/01/24 11:11:55;;;;;;;13.88;2.65;;;;;;;;;;5084708;28;20492;-95
2022/01/24 11:14:23;;;;;;;14.73;2.95;;;;;;;;;;5083363;28;20170;-95
2022/01/24 11:16:49;;;;;;;14.80;2.35;;;;;;;;;;5083302;28;20166;-95
2022/01/24 11:19:23;;;;;;;41.25;3.50;;;;;;;;;;5080887;28;20194;-95
2022/01/24 11:21:51;;;;;;;10.18;2.15;;;;;;;;;;5079568;28;20159;-96
2022/01/24 11:24:21;;;;;;;8.77;2.38;;;;;;;;;;5079000;28;20166;-96
2022/01/24 11:26:48;;;;;;;11.60;3.08;;;;;;;;;;5081285;28;20170;-95
2022/01/24 11:29:17;;;;;;;7.70;1.70;;;;;;;;;;5082080;28;20323;-96
2022/01/24 11:32:02;;;;;;;26.13;2.10;;;;;;;;;;5079584;28;20170;-96
2022/01/24 11:34:34;;;;;;;9.53;2.70;;;;;;;;;;5079421;28;20174;-96
2022/01/24 11:37:00;;;;;;;9.32;2.05;;;;;;;;;;5078473;28;20521;-95
2022/01/24 11:39:26;;;;;;;4.40;1.70;;;;;;;;;;5079125;28;20214;-96
2022/01/24 11:41:53;;;;;;;8.52;2.17;;;;;;;;;;5079187;28;20405;-96
2022/01/24 11:44:21;;;;;;;9.63;1.90;;;;;;;;;;5081102;28;20177;-96
2022/01/24 11:46:52;;;;;;;16.83;3.80;;;;;;;;;;5081582;28;20410;-96
2022/01/24 11:49:32;;;;;;;22.53;2.60;;;;;;;;;;5082759;28;20459;-96
2022/01/24 11:52:07;;;;;;;10.50;3.00;;;;;;;;;;5080180;28;20977;-96
2022/01/24 11:57:37;;;;;;;22.23;3.10;;;;;;;;;;5088735;28;20421;-94
2022/01/24 12:00:06;;;;;;;5.83;2.10;;;;;;;;;;5063083;28;20421;-93
2022/01/24 12:02:49;;;;;;;18.80;3.33;;;;;;;;;;5069974;28;21003;-94
2022/01/24 12:05:26;;;;;;;18.50;3.67;;;;;;;;;;5086011;28;20413;-94
2022/01/24 12:07:55;;;;;;;20.60;2.53;;;;;;;;;;5085083;28;20449;-95
2022/01/24 12:10:34;;;;;;;20.30;2.83;;;;;;;;;;5069514;28;20892;-94
2022/01/24 12:13:02;;;;;;;10.07;2.53;;;;;;;;;;5080797;28;20514;-94
2022/01/24 12:15:37;;;;;;;9.53;2.20;;;;;;;;;;5056801;28;20426;-94
2022/01/24 12:18:07;;;;;;;5.63;2.60;;;;;;;;;;5057967;28;20559;-95
2022/01/24 12:20:34;;;;;;;16.80;2.47;;;;;;;;;;5059241;28;20414;-94
2022/01/24 12:23:25;;;;;;;6.00;2.80;;;;;;;;;;5059535;28;20457;-93
2022/01/24 12:26:07;;;;;;;25.67;2.97;;;;;;;;;;5076744;28;20475;-93
2022/01/24 12:28:35;;;;;;;10.10;2.43;;;;;;;;;;5071769;28;20452;-96
2022/01/24 12:31:10;;;;;;;8.30;1.97;;;;;;;;;;5069298;28;20452;-94
2022/01/24 12:33:39;;;;;;;42.30;3.03;;;;;;;;;;5075497;28;20426;-95
2022/01/24 12:36:06;;;;;;;24.93;2.93;;;;;;;;;;5080772;28;20408;-96
2022/01/24 12:38:43;;;;;;;13.23;2.33;;;;;;;;;;5081812;28;20433;-96
2022/01/24 12:41:17;;;;;;;11.40;2.70;;;;;;;;;;5078020;28;20414;-95
2022/01/24 12:46:50;;;;;;;8.53;2.03;;;;;;;;;;5007692;28;20405;-96
2022/01/24 12:49:16;;;;;;;23.70;2.70;;;;;;;;;;5048839;28;20457;-96
2022/01/24 12:51:45;;;;;;;6.50;2.10;;;;;;;;;;5079712;28;20406;-93
2022/01/24 12:54:11;;;;;;;29.80;2.80;;;;;;;;;;5067233;28;20419;-94
2022/01/24 12:56:37;;;;;;;16.27;2.67;;;;;;;;;;5068496;28;20415;-96
2022/01/24 12:59:04;;;;;;;33.33;2.47;;;;;;;;;;5078859;28;20436;-95
2022/01/24 13:01:34;;;;;;;8.63;1.77;;;;;;;;;;5093166;28;20442;-96
2022/01/24 13:04:10;;;;;;;7.17;2.03;;;;;;;;;;5084644;28;20413;-96
2022/01/24 13:06:37;;;;;;;9.13;2.27;;;;;;;;;;5071316;28;20417;-94
2022/01/24 13:09:15;;;;;;;8.33;1.90;;;;;;;;;;5095591;28;20523;-96
2022/01/24 13:11:48;;;;;;;16.33;2.60;;;;;;;;;;5093046;28;20416;-96
2022/01/24 13:14:20;;;;;;;12.30;2.07;;;;;;;;;;5089274;28;20470;-95
2022/01/24 13:22:48;;;;;;;32.07;2.90;;;;;;;;;;5089705;28;20905;-95
2022/01/24 13:25:13;;;;;;;17.53;2.50;;;;;;;;;;5086491;28;20499;-93
2022/01/24 13:27:40;;;;;;;31.77;3.70;;;;;;;;;;5069162;28;20856;-93
2022/01/24 13:30:08;;;;;;;8.20;1.80;;;;;;;;;;5075670;28;20487;-95
2022/01/24 13:33:01;;;;;;;11.83;2.37;;;;;;;;;;5066851;28;20455;-94
2022/01/24 13:35:33;;;;;;;21.63;2.40;;;;;;;;;;5057263;28;20977;-94
2022/01/24 13:38:00;;;;;;;11.60;1.93;;;;;;;;;;5073445;28;20438;-94
2022/01/24 13:40:56;;;;;;;15.67;2.30;;;;;;;;;;5082631;28;20469;-94
2022/01/24 13:43:36;;;;;;;20.27;2.47;;;;;;;;;;5068178;28;20484;-94
2022/01/24 13:46:03;;;;;;;21.73;2.70;;;;;;;;;;5075233;28;20424;-94
2022/01/24 13:48:36;;;;;;;22.80;2.33;;;;;;;;;;5075075;28;20522;-94
2022/01/24 13:51:03;;;;;;;8.80;2.10;;;;;;;;;;5080655;28;20446;-95
2022/01/24 13:53:36;;;;;;;26.47;2.83;;;;;;;;;;5073235;28;20921;-94
2022/01/24 13:56:16;;;;;;;14.33;2.33;;;;;;;;;;5059484;28;20414;-95
2022/01/24 13:58:42;;;;;;;8.40;2.23;;;;;;;;;;5075309;28;20440;-95
2022/01/24 14:01:09;;;;;;;32.67;2.80;;;;;;;;;;5075504;28;20794;-95
2022/01/24 14:03:35;;;;;;;16.33;2.60;;;;;;;;;;5067727;28;20430;-95
2022/01/24 14:06:17;;;;;;;18.47;3.40;;;;;;;;;;5073978;28;20926;-95
2022/01/24 14:08:44;;;;;;;6.07;2.60;;;;;;;;;;5072090;28;20448;-95
2022/01/24 14:11:15;;;;;;;10.13;2.57;;;;;;;;;;5075790;28;20420;-95
2022/01/24 14:13:47;;;;;;;12.63;2.30;;;;;;;;;;5074204;28;20437;-94
2022/01/24 14:16:33;;;;;;;30.60;2.83;;;;;;;;;;5074258;28;20420;-94
2022/01/24 14:19:00;;;;;;;16.03;2.97;;;;;;;;;;5070493;28;20443;-94
2022/01/24 14:21:26;;;;;;;14.90;2.60;;;;;;;;;;5056385;28;20429;-94
2022/01/24 14:23:54;;;;;;;21.67;2.63;;;;;;;;;;5094044;28;20420;-94
2022/01/24 14:26:23;;;;;;;14.17;2.30;;;;;;;;;;5088590;28;20412;-94
2022/01/24 14:29:04;;;;;;;20.30;2.60;;;;;;;;;;5088461;28;20446;-94
2022/01/24 14:31:30;;;;;;;7.03;2.20;;;;;;;;;;5073153;28;20417;-94
2022/01/24 14:34:00;;;;;;;18.23;3.03;;;;;;;;;;5073111;28;20428;-94
2022/01/24 14:36:26;;;;;;;17.30;2.70;;;;;;;;;;5076379;28;20959;-94
2022/01/24 14:39:05;;;;;;;17.70;2.73;;;;;;;;;;5105632;28;20443;-95
2022/01/24 14:41:45;;;;;;;31.20;3.07;;;;;;;;;;5089914;28;20431;-95
2022/01/24 14:46:58;;;;;;;12.93;2.10;;;;;;;;;;5097060;28;20454;-93
2022/01/24 14:49:26;;;;;;;17.77;3.17;;;;;;;;;;5077856;28;20453;-94
2022/01/24 14:51:54;;;;;;;15.00;2.67;;;;;;;;;;5077079;28;20901;-94
2022/01/24 14:54:22;;;;;;;19.47;2.83;;;;;;;;;;5070593;28;20414;-94
2022/01/24 14:56:49;;;;;;;18.07;2.63;;;;;;;;;;5074109;28;20497;-93
2022/01/24 14:59:16;;;;;;;50.17;3.10;;;;;;;;;;5095983;28;20440;-94
2022/01/24 15:01:42;;;;;;;28.17;2.83;;;;;;;;;;5081816;28;20412;-93
2022/01/24 15:04:08;;;;;;;40.47;2.90;;;;;;;;;;5097755;28;20411;-93
2022/01/24 15:06:35;;;;;;;12.53;2.07;;;;;;;;;;5062899;28;20423;-93
2022/01/24 15:09:02;;;;;;;21.67;2.40;;;;;;;;;;5070266;28;20825;-93
2022/01/24 15:11:31;;;;;;;8.27;1.70;;;;;;;;;;5069274;28;20926;-93
2022/01/24 15:14:02;;;;;;;23.53;1.87;;;;;;;;;;5093930;28;20993;-93
2022/01/24 15:16:39;;;;;;;18.07;1.90;;;;;;;;;;5081877;28;20473;-93
2022/01/24 15:27:06;;;;;;;19.90;2.05;;;;;;;;;;5083571;28;20166;-93
2022/01/24 15:29:33;;;;;;;17.98;1.92;;;;;;;;;;5076584;28;20229;-93
2022/01/24 15:32:03;;;;;;;74.15;3.90;;;;;;;;;;5071274;28;20212;-92
2022/01/24 15:34:29;;;;;;;16.30;1.98;;;;;;;;;;5067137;28;20642;-93
2022/01/24 15:36:55;;;;;;;22.90;2.25;;;;;;;;;;5068848;28;20182;-93
2022/01/24 15:39:21;;;;;;;23.40;1.85;;;;;;;;;;5086438;28;20213;-92
2022/01/24 15:41:53;;;;;;;54.45;3.35;;;;;;;;;;5075734;28;20184;-92
2022/01/24 15:47:17;;;;;;;36.38;2.33;;;;;;;;;;5082839;28;20194;-90
2022/01/24 15:49:45;;;;;;;30.42;2.13;;;;;;;;;;5083510;28;20224;-93
2022/01/24 15:52:12;;;;;;;5.20;1.60;;;;;;;;;;5065838;28;20181;-93
2022/01/24 15:54:38;;;;;;;5.47;2.00;;;;;;;;;;5083413;28;20170;-93
2022/01/24 15:59:49;;;;;;;75.03;3.50;;;;;;;;;;5095269;28;20192;-96
2022/01/24 16:02:15;;;;;;;12.88;2.20;;;;;;;;;;5076890;28;20258;-93
2022/01/24 16:04:41;;;;;;;34.92;2.22;;;;;;;;;;5075749;28;20179;-92
2022/01/24 16:07:08;;;;;;;34.65;2.25;;;;;;;;;;5076597;28;20257;-93
2022/01/24 16:09:34;;;;;;;30.40;2.78;;;;;;;;;;5076101;28;20577;-92
2022/01/24 16:12:00;;;;;;;19.58;2.40;;;;;;;;;;5073324;28;20186;-93
2022/01/24 16:14:26;;;;;;;17.20;1.95;;;;;;;;;;5064367;28;20186;-92
2022/01/24 16:16:53;;;;;;;24.15;2.08;;;;;;;;;;5074423;28;20212;-92
2022/01/24 16:19:21;;;;;;;19.00;2.80;;;;;;;;;;5071195;28;20617;-92
2022/01/24 16:22:00;;;;;;;42.63;3.53;;;;;;;;;;5064792;28;20187;-93
2022/01/24 16:26:59;;;;;;;21.45;2.22;;;;;;;;;;5095655;28;20682;-93
2022/01/24 16:29:26;;;;;;;24.55;2.45;;;;;;;;;;5071093;28;20194;-92
2022/01/24 16:31:53;;;;;;;30.45;2.85;;;;;;;;;;5064483;28;20175;-93
2022/01/24 16:34:19;;;;;;;13.90;2.47;;;;;;;;;;5059339;28;20166;-95
2022/01/24 16:36:45;;;;;;;13.50;2.17;;;;;;;;;;5067727;28;20552;-94
2022/01/24 16:39:16;;;;;;;51.65;3.83;;;;;;;;;;5099991;28;20225;-93
2022/01/24 16:41:50;;;;;;;19.05;3.15;;;;;;;;;;5061327;28;20176;-92
2022/01/24 16:47:03;;;;;;;14.68;2.55;;;;;;;;;;5082076;28;20187;-92
2022/01/24 16:49:34;;;;;;;5.65;1.48;;;;;;;;;;5083972;28;20543;-92
2022/01/24 16:52:00;;;;;;;32.88;3.03;;;;;;;;;;5092870;28;20540;-93
2022/01/24 16:54:28;;;;;;;20.17;2.70;;;;;;;;;;5092228;28;20247;-92
2022/01/24 16:56:55;;;;;;;5.35;1.83;;;;;;;;;;5067096;28;20175;-93
2022/01/24 16:59:21;;;;;;;38.47;2.47;;;;;;;;;;5092166;28;20208;-92
2022/01/24 17:01:47;;;;;;;11.38;2.63;;;;;;;;;;5068291;28;20555;-94
2022/01/24 17:04:13;;;;;;;26.70;2.53;;;;;;;;;;5072904;28;20220;-94
2022/01/24 17:06:40;;;;;;;12.68;2.25;;;;;;;;;;5060460;28;20609;-92
2022/01/24 17:09:10;;;;;;;6.65;2.80;;;;;;;;;;5080975;28;20206;-92
2022/01/24 17:11:39;;;;;;;14.25;3.03;;;;;;;;;;5072470;28;20187;-92
2022/01/24 17:14:10;;;;;;;29.73;2.50;;;;;;;;;;5076225;28;20183;-93
2022/01/24 17:16:37;;;;;;;18.05;2.85;;;;;;;;;;5084841;28;20628;-93
2022/01/24 17:19:03;;;;;;;31.15;2.80;;;;;;;;;;5075648;28;20289;-93
2022/01/24 17:21:31;;;;;;;22.85;2.20;;;;;;;;;;5072498;28;20170;-92
2022/01/24 17:23:57;;;;;;;17.50;2.50;;;;;;;;;;5086293;28;20210;-93
2022/01/24 17:26:23;;;;;;;15.50;2.85;;;;;;;;;;5063884;28;20159;-93
2022/01/24 17:28:49;;;;;;;16.00;2.05;;;;;;;;;;5068112;28;20566;-93
2022/01/24 17:31:16;;;;;;;26.02;2.33;;;;;;;;;;5076697;28;20728;-93
2022/01/24 17:33:42;;;;;;;45.33;4.50;;;;;;;;;;5075712;28;20218;-93
2022/01/24 17:36:09;;;;;;;81.55;3.75;;;;;;;;;;5092093;28;20182;-93
2022/01/24 17:38:35;;;;;;;22.70;2.40;;;;;;;;;;5092080;28;20190;-93
2022/01/24 17:41:02;;;;;;;7.53;2.13;;;;;;;;;;5077205;28;20182;-93
2022/01/24 17:43:28;;;;;;;13.27;2.60;;;;;;;;;;5068988;28;20237;-93
2022/01/24 17:45:56;;;;;;;18.52;2.28;;;;;;;;;;5073457;28;20205;-93
2022/01/24 17:48:22;;;;;;;12.75;2.17;;;;;;;;;;5060373;28;20198;-93
2022/01/24 17:50:48;;;;;;;25.67;2.60;;;;;;;;;;5065229;28;20237;-93
2022/01/24 17:53:14;;;;;;;32.10;2.70;;;;;;;;;;5065287;28;20201;-93
2022/01/24 17:55:41;;;;;;;9.23;1.90;;;;;;;;;;5074857;28;20261;-92
2022/01/24 17:58:07;;;;;;;23.63;1.85;;;;;;;;;;5061548;28;20199;-93
2022/01/24 18:00:33;;;;;;;69.30;3.75;;;;;;;;;;5064075;28;20254;-93
2022/01/24 18:02:59;;;;;;;16.60;2.75;;;;;;;;;;5073958;28;20549;-93
2022/01/24 18:05:25;;;;;;;20.95;2.88;;;;;;;;;;5084125;28;20178;-93
2022/01/24 18:07:52;;;;;;;24.05;2.63;;;;;;;;;;5084077;28;20670;-92
2022/01/24 18:10:20;;;;;;;36.80;2.30;;;;;;;;;;5083481;28;20199;-93
2022/01/24 18:12:49;;;;;;;22.42;2.45;;;;;;;;;;5083288;28;20182;-93
2022/01/24 18:15:16;;;;;;;12.32;1.95;;;;;;;;;;5073742;28;20188;-93
2022/01/24 18:17:42;;;;;;;12.88;1.63;;;;;;;;;;5075422;28;20199;-92
2022/01/24 18:20:11;;;;;;;17.73;2.15;;;;;;;;;;5094024;28;20177;-96
2022/01/24 18:22:37;;;;;;;37.13;2.80;;;;;;;;;;5081344;22;20288;-79
2022/01/24 18:25:04;;;;;;;48.25;2.80;;;;;;;;;;5056234;28;20184;-79
2022/01/24 18:27:30;;;;;;;61.42;3.60;;;;;;;;;;5055995;28;20643;-77
2022/01/24 18:29:57;;;;;;;52.78;2.50;;;;;;;;;;5052817;28;20234;-77
2022/01/24 18:32:26;;;;;;;75.22;4.05;;;6.80;39.70;;;;;;5054206;28;20169;-76
2022/01/24 18:34:53;;;;;;;75.60;3.55;;;;;;;;;;5056318;28;20177;-77
2022/01/24 18:37:20;;;;;;;130.60;4.97;;;;;;;;;;5057212;28;20199;-80
2022/01/24 18:39:46;;;;;;;49.78;3.28;;;;;;;;;;5045035;28;20200;-79
2022/01/24 18:42:13;;;;;;;66.95;3.05;;;;;;;;;;5036751;28;20254;-79
2022/01/24 18:44:42;;;;;;;72.13;3.42;;;;;;;;;;5038432;28;20644;-79
2022/01/24 18:47:08;;;;;;;54.05;2.90;;;;;;;;;;5034905;28;20204;-79
2022/01/24 18:49:35;;;;;;;68.85;3.47;;;;;;;;;;5037025;28;20554;-79
2022/01/24 18:52:03;;;;;;;57.95;4.03;;;;;;;;;;5037191;28;20187;-77
2022/01/24 18:54:29;;;;;;;87.00;4.45;;;;;;;;;;5037050;28;20176;-78
2022/01/24 18:56:59;;;;;;;48.22;2.65;;;;;;;;;;5037135;28;20195;-78
2022/01/24 18:59:25;;;;;;;56.35;3.03;;;;;;;;;;5035836;28;20219;-77
2022/01/24 19:01:51;;;;;;;39.33;2.33;;;;;;;;;;5035094;28;20181;-76
2022/01/24 19:04:17;;;;;;;51.87;2.77;;;;;;;;;;5036182;28;20714;-79
2022/01/24 19:06:43;;;;;;;76.13;3.63;;;;;;;;;;5035175;28;20431;-79
2022/01/24 19:09:09;;;;;;;79.43;3.65;;;;;;;;;;5035257;28;20172;-78
2022/01/24 19:11:36;;;;;;;71.90;3.38;;;;;;;;;;5036277;28;20212;-77
2022/01/24 19:14:02;;;;;;;57.05;2.95;;;;;;;;;;5034969;28;20640;-78
2022/01/24 19:16:28;;;;;;;50.75;3.20;;;6.20;42.90;;;;;;5037036;28;20212;-80
2022/01/24 19:18:59;;;;;;;53.90;2.80;;;6.30;42.40;;;;;;5037752;28;20196;-79
2022/01/24 19:24:12;;;;;;;20.33;1.75;;;;;;;;;;5037183;28;20187;-78
2022/01/24 19:26:38;;;;;;;73.00;3.25;;;6.50;41.50;;;;;;5035911;28;20256;-78
2022/01/24 19:29:04;;;;;;;38.27;2.70;;;6.30;42.00;;;;;;5035585;28;20212;-79
2022/01/24 19:31:30;;;;;;;104.93;5.32;;;6.30;41.70;;;;;;5035258;28;20461;-79
2022/01/24 19:33:56;;;;;;;46.43;2.53;;;;;;;;;;5028419;28;20644;-77
2022/01/24 19:36:22;;;;;;;71.65;2.55;;;;;;;;;;5025993;28;20598;-79
2022/01/24 19:38:48;;;;;;;76.93;3.33;;;6.00;43.10;;;;;;5033366;28;20180;-77
2022/01/24 19:41:14;;;;;;;60.40;3.00;;;;;;;;;;5034657;28;20459;-77
2022/01/24 19:43:41;;;;;;;57.33;2.60;;;5.90;43.00;;;;;;5030628;28;20415;-77
2022/01/24 19:46:07;;;;;;;162.02;5.10;;;;;;;;;;5034730;28;20177;-77
2022/01/24 19:48:33;;;;;;;57.53;2.42;;;5.90;42.80;;;;;;5034069;28;20228;-78
2022/01/24 19:51:04;;;;;;;84.95;4.75;;;;;;;;;;5035061;28;20212;-79
2022/01/24 19:53:37;;;;;;;47.10;2.28;;;6.00;43.20;;;;;;5047522;28;20182;-78
2022/01/24 19:56:18;;;;;;;178.90;5.93;;;5.80;44.10;;;;;;5040516;28;20224;-77
2022/01/24 19:58:50;;;;;;;63.35;3.08;;;;;;;;;;5035083;28;20691;-78
2022/01/24 20:01:16;;;;;;;69.07;3.20;;;;;;;;;;5034069;28;20283;-79
2022/01/24 20:03:42;;;;;;;59.95;3.00;;;;;;;;;;5034713;28;20172;-78
2022/01/24 20:06:08;;;;;;;124.63;4.35;;;;;;;;;;5034875;28;20820;-79
2022/01/24 20:08:35;;;;;;;57.72;2.58;;;;;;;;;;5033814;28;20215;-77
2022/01/24 20:11:01;;;;;;;58.13;2.83;;;;;;;;;;5033480;28;20220;-76
2022/01/24 20:13:27;;;;;;;58.63;3.55;;;;;;;;;;5032982;28;20173;-77
2022/01/24 20:15:55;;;;;;;55.72;2.45;;;;;;;;;;5032743;28;20177;-77
2022/01/24 20:18:21;;;;;;;101.15;3.65;;;;;;;;;;5032929;28;20252;-78
2022/01/24 20:20:47;;;;;;;54.50;3.60;;;;;;;;;;5035248;28;20242;-79
2022/01/24 20:23:13;;;;;;;41.20;2.33;;;;;;;;;;5033578;28;20200;-76
2022/01/24 20:25:39;;;;;;;46.83;2.47;;;;;;;;;;5035528;28;20181;-80
2022/01/24 20:28:06;;;;;;;89.03;3.38;;;;;;;;;;5036473;28;20180;-79
2022/01/24 20:30:32;;;;;;;105.20;3.92;;;7.10;37.40;;;;;;5037233;28;20212;-80
2022/01/24 20:32:58;;;;;;;56.42;3.38;;;;;;;;;;5037759;28;20188;-81
2022/01/24 20:35:27;;;;;;;84.45;3.40;;;;;;;;;;5036927;28;20188;-79
2022/01/24 20:37:53;;;;;;;81.35;3.20;;;;;;;;;;5036695;28;20176;-80
2022/01/24 20:40:20;;;;;;;70.72;4.00;;;;;;;;;;5028939;28;20197;-80
2022/01/24 20:42:46;;;;;;;60.50;3.20;;;;;;;;;;5038107;28;20174;-80
2022/01/24 20:45:14;;;;;;;77.78;3.17;;;7.10;37.40;;;;;;5036695;28;20188;-82
2022/01/24 20:47:40;;;;;;;97.60;3.95;;;;;;;;;;5035635;28;20223;-79
2022/01/24 20:50:10;;;;;;;62.50;3.83;;;;;;;;;;5035228;28;20579;-83
2022/01/24 20:52:35;;;;;;;84.95;4.90;;;6.70;38.20;;;;;;5037301;28;20195;-82
2022/01/24 20:55:01;;;;;;;64.93;2.60;;;6.30;39.20;;;;;;5038364;28;20697;-79
2022/01/24 20:57:27;;;;;;;71.10;4.07;;;6.10;40.00;;;;;;5036053;28;20660;-79
2022/01/24 20:59:53;;;;;;;39.93;2.37;;;6.00;40.50;;;;;;5037342;28;20239;-80
2022/01/24 21:02:22;;;;;;;37.38;2.40;;;;;;;;;;5036393;28;20203;-80
2022/01/24 21:04:48;;;;;;;58.72;2.70;;;;;;;;;;5037318;28;20176;-79
2022/01/24 21:07:14;;;;;;;93.40;3.65;;;;;;;;;;5036202;28;20550;-78
2022/01/24 21:09:42;;;;;;;64.20;2.90;;;;;;;;;;5034088;28;20205;-78
2022/01/24 21:12:24;;;;;;;61.50;4.90;;;;;;;;;;5035203;28;20818;-77
2022/01/24 21:14:51;;;;;;;49.45;3.03;;;;;;;;;;5028100;28;20168;-78
2022/01/24 21:17:18;;;;;;;36.45;2.85;;;5.60;43.20;;;;;;5033425;28;20176;-76
